Time;durP1;ratioP1;P1;durP2;ratioP2;P2;SDS_P1;SDS_P2;PMS_P1;PMS_P2;Temp;Humidity;BMP_temperature;BMP_pressure;BME280_temperature;BME280_humidity;BME280_pressure;Samples;Min_cycle;Max_cycle;Signal;HPM_P1;HPM_P2
2022/01/10 00:01:52;;;;;;;114.28;46.08;;;;;;;-5.37;67.06;96377.08;1832955;77;25783;-85
2022/01/10 00:04:18;;;;;;;113.50;46.13;;;;;;;-5.41;67.07;96376.16;1844338;77;25784;-85
2022/01/10 00:06:45;;;;;;;112.37;47.85;;;;;;;-5.42;67.10;96377.12;1837060;77;25742;-84
2022/01/10 00:09:11;;;;;;;130.63;48.15;;;;;;;-5.41;67.19;96378.79;1839809;77;26245;-84
2022/01/10 00:11:38;;;;;;;122.55;49.90;;;;;;;-5.43;67.21;96381.55;1844136;77;27428;-82
2022/01/10 00:14:05;;;;;;;143.87;53.60;;;;;;;-5.43;67.19;96380.75;1844335;77;25757;-84
2022/01/10 00:16:32;;;;;;;140.85;56.50;;;;;;;-5.45;67.25;96383.03;1844368;77;25659;-84
2022/01/10 00:18:58;;;;;;;137.92;54.48;;;;;;;-5.47;67.29;96383.66;1844480;77;25743;-85
2022/01/10 00:21:25;;;;;;;144.22;54.10;;;;;;;-5.47;67.28;96381.02;1825286;77;25647;-84
2022/01/10 00:23:51;;;;;;;124.90;50.52;;;;;;;-5.48;67.41;96384.62;1800352;79;28151;-83
2022/01/10 00:26:18;;;;;;;121.55;50.75;;;;;;;-5.49;67.35;96393.47;1794604;79;25721;-83
2022/01/10 00:28:44;;;;;;;123.42;50.83;;;;;;;-5.50;67.36;96391.80;1794384;78;25703;-83
2022/01/10 00:31:11;;;;;;;122.47;47.85;;;;;;;-5.53;67.33;96396.02;1791322;79;26145;-84
2022/01/10 00:33:38;;;;;;;109.27;44.10;;;;;;;-5.53;67.33;96396.50;1801607;78;25770;-84
2022/01/10 00:36:05;;;;;;;112.97;44.00;;;;;;;-5.67;67.11;96392.95;1792851;79;27378;-82
2022/01/10 00:38:32;;;;;;;110.70;44.95;;;;;;;-5.81;67.22;96396.34;1801817;78;26009;-82
2022/01/10 00:41:00;;;;;;;99.75;43.68;;;;;;;-5.86;67.33;96400.33;1801248;78;25799;-84
2022/01/10 00:43:35;;;;;;;108.67;45.70;;;;;;;-5.85;67.54;96408.08;1801547;79;25785;-83
2022/01/10 00:46:03;;;;;;;105.72;45.40;;;;;;;-5.85;67.59;96409.88;1794164;79;25748;-83
2022/01/10 00:48:30;;;;;;;107.40;44.98;;;;;;;-5.90;67.60;96412.09;1781802;80;27364;-84
2022/01/10 00:50:57;;;;;;;100.62;43.42;;;;;;;-5.92;67.70;96414.89;1780177;79;25826;-83
2022/01/10 00:53:25;;;;;;;112.92;47.70;;;;;;;-5.92;67.78;96410.11;1770385;79;25633;-85
2022/01/10 00:55:52;;;;;;;104.07;45.50;;;;;;;-5.89;67.86;96421.65;1768650;81;26338;-83
2022/01/10 00:58:18;;;;;;;112.03;47.80;;;;;;;-5.94;67.78;96423.86;1768655;81;25849;-83
2022/01/10 01:00:45;;;;;;;120.95;47.95;;;;;;;-5.95;67.88;96424.34;1768591;81;27353;-84
2022/01/10 01:03:12;;;;;;;110.52;46.92;;;;;;;-5.96;67.80;96424.47;1768603;81;25829;-82
2022/01/10 01:05:41;;;;;;;117.45;49.45;;;;;;;-5.97;67.80;96428.06;1768308;81;25807;-84
2022/01/10 01:08:09;;;;;;;114.00;48.13;;;;;;;-5.99;67.78;96426.87;1768600;81;25719;-82
2022/01/10 01:13:23;;;;;;;110.45;44.75;;;;;;;-6.01;67.81;96431.43;1767093;79;27978;-83
2022/01/10 01:16:15;;;;;;;106.52;46.33;;;;;;;-6.01;67.83;96428.80;1782285;79;25646;-83
2022/01/10 01:18:21;;;;;;;113.80;47.83;;;;;;;-6.09;67.85;96432.59;1775260;79;25730;-83
2022/01/10 01:20:44;;;;;;;101.72;46.63;;;;;;;-6.16;67.94;96433.27;1794057;79;26203;-81
2022/01/10 01:26:03;;;;;;;;;;;;;;;-6.22;68.09;96439.38;1768364;79;28795;-83
2022/01/10 01:28:31;;;;;;;92.75;38.90;;;;;;;-6.21;68.35;96450.23;1758940;79;25843;-82
2022/01/10 01:30:58;;;;;;;92.17;37.80;;;;;;;-6.20;68.33;96445.82;1792003;79;25718;-84
2022/01/10 01:33:25;;;;;;;87.65;37.53;;;;;;;-6.16;68.32;96445.08;1765512;79;25735;-84
2022/01/10 01:35:53;;;;;;;86.17;36.42;;;;;;;-6.14;68.34;96443.13;1764278;80;25773;-84
2022/01/10 01:38:19;;;;;;;84.83;36.28;;;;;;;-6.16;68.33;96445.92;1760373;80;27407;-83
2022/01/10 01:40:55;;;;;;;88.10;38.33;;;;;;;-6.19;68.17;96454.05;1761111;80;25751;-84
2022/01/10 01:43:15;;;;;;;100.18;43.98;;;;;;;-6.22;68.24;96455.63;1757962;80;25768;-84
2022/01/10 01:45:45;;;;;;;92.50;41.28;;;;;;;-6.19;68.38;96460.62;1784701;79;25796;-83
2022/01/10 01:48:13;;;;;;;94.20;40.67;;;;;;;-6.21;68.30;96459.43;1823384;78;25691;-83
2022/01/10 01:50:41;;;;;;;80.53;34.88;;;;;;;-6.22;68.26;96460.88;1836146;78;27464;-83
2022/01/10 01:53:08;;;;;;;83.22;36.10;;;;;;;-6.27;68.12;96463.05;1831576;78;25889;-82
2022/01/10 01:55:35;;;;;;;89.67;40.30;;;;;;;-6.38;68.08;96467.91;1835985;78;25669;-83
2022/01/10 01:58:03;;;;;;;95.25;40.58;;;;;;;-6.41;68.26;96469.50;1829776;78;26198;-83
2022/01/10 02:00:30;;;;;;;92.88;40.92;;;;;;;-6.42;68.36;96470.94;1821354;78;25719;-83
2022/01/10 02:02:57;;;;;;;84.47;38.50;;;;;;;-6.43;68.39;96475.36;1826306;78;27364;-83
2022/01/10 02:05:24;;;;;;;75.45;32.55;;;;;;;-6.44;68.26;96468.44;1830991;78;25705;-83
2022/01/10 02:07:50;;;;;;;76.07;31.57;;;;;;;-6.46;68.26;96469.05;1833643;78;25708;-81
2022/01/10 02:10:17;;;;;;;72.60;30.62;;;;;;;-6.46;68.36;96470.36;1828481;78;25667;-83
2022/01/10 02:12:43;;;;;;;71.17;31.00;;;;;;;-6.46;68.33;96470.36;1830777;78;26230;-83
2022/01/10 02:15:32;;;;;;;73.28;31.97;;;;;;;-6.47;68.29;96479.67;1826880;78;27380;-83
2022/01/10 02:17:59;;;;;;;62.73;27.67;;;;;;;-6.59;68.19;96474.49;1771715;79;25814;-83
2022/01/10 02:20:24;;;;;;;81.25;31.80;;;;;;;-6.66;68.32;96484.34;1772774;80;26329;-84
2022/01/10 02:22:50;;;;;;;92.65;38.80;;;;;;;-6.64;68.58;96483.73;1773049;80;25766;-83
2022/01/10 02:25:19;;;;;;;81.05;34.78;;;;;;;-6.62;68.61;96481.31;1773235;80;25809;-83
2022/01/10 02:27:46;;;;;;;99.97;39.20;;;;;;;-6.63;68.58;96487.52;1774603;79;27380;-83
2022/01/10 02:30:12;;;;;;;90.25;38.40;;;;;;;-6.64;68.65;96488.98;1772949;80;25783;-83
2022/01/10 02:32:39;;;;;;;87.62;36.23;;;;;;;-6.61;68.60;96491.33;1773086;80;25815;-83
2022/01/10 02:35:20;;;;;;;91.15;37.17;;;;;;;-6.61;68.52;96497.89;1772856;80;25426;-82
2022/01/10 02:37:48;;;;;;;85.32;36.68;;;;;;;-6.68;68.48;96498.06;1762967;79;26234;-83
2022/01/10 02:40:15;;;;;;;89.83;38.70;;;;;;;-6.74;68.37;96501.18;1777035;79;27384;-82
2022/01/10 02:42:42;;;;;;;94.22;37.58;;;;;;;-6.76;68.54;96507.06;1775872;79;25871;-83
2022/01/10 02:45:09;;;;;;;86.20;36.42;;;;;;;-6.76;68.59;96501.81;1773101;80;25781;-82
2022/01/10 02:47:37;;;;;;;76.20;33.67;;;;;;;-6.74;68.61;96503.33;1768776;80;25824;-83
2022/01/10 02:50:05;;;;;;;86.65;35.63;;;;;;;-6.72;68.53;96503.20;1762074;79;25727;-82
2022/01/10 02:52:34;;;;;;;68.07;29.85;;;;;;;-6.74;68.37;96505.95;1760887;80;28008;-83
2022/01/10 02:55:02;;;;;;;76.20;31.73;;;;;;;-6.76;68.41;96501.30;1831837;77;25904;-83
2022/01/10 02:57:30;;;;;;;72.65;28.98;;;;;;;-6.83;68.35;96513.75;1833051;77;25710;-83
2022/01/10 02:59:59;;;;;;;68.17;30.32;;;;;;;-6.89;68.43;96512.97;1843890;76;25687;-82
2022/01/10 03:02:31;;;;;;;64.72;27.62;;;;;;;-6.95;68.58;96513.80;1844213;76;25794;-82
2022/01/10 03:04:54;;;;;;;62.03;25.55;;;;;;;-6.97;68.59;96517.03;1843190;77;27415;-82
2022/01/10 03:07:24;;;;;;;64.20;27.15;;;;;;;-6.99;68.70;96515.00;1844189;77;25703;-82
2022/01/10 03:09:51;;;;;;;63.92;26.93;;;;;;;-6.98;68.74;96511.42;1844284;77;25259;-82
2022/01/10 03:12:18;;;;;;;61.58;26.15;;;;;;;-6.99;68.69;96523.36;1833849;76;26886;-83
2022/01/10 03:14:45;;;;;;;57.60;24.37;;;;;;;-6.96;68.73;96524.42;1844232;77;25651;-82
2022/01/10 03:17:12;;;;;;;65.75;27.95;;;;;;;-6.98;68.65;96523.23;1844277;77;27325;-83
2022/01/10 03:19:41;;;;;;;58.10;26.73;;;;;;;-7.02;68.69;96529.70;1838286;77;25839;-83
2022/01/10 03:22:08;;;;;;;57.62;25.12;;;;;;;-6.99;68.72;96533.37;1844232;77;26330;-82
2022/01/10 03:24:36;;;;;;;71.75;28.50;;;;;;;-6.99;68.71;96537.30;1844189;77;26214;-82
2022/01/10 03:27:03;;;;;;;77.22;31.52;;;;;;;-7.02;68.71;96534.12;1835591;77;26347;-82
2022/01/10 03:29:30;;;;;;;75.00;29.18;;;;;;;-7.07;68.73;96537.58;1844221;77;27361;-82
2022/01/10 03:31:56;;;;;;;61.42;26.82;;;;;;;-7.08;68.77;96536.75;1844126;77;25867;-83
2022/01/10 03:34:23;;;;;;;67.97;27.40;;;;;;;-7.12;68.68;96535.32;1844256;77;25629;-83
2022/01/10 03:36:50;;;;;;;75.83;29.57;;;;;;;-7.14;68.70;96541.20;1841387;77;25712;-83
2022/01/10 03:39:16;;;;;;;76.62;30.68;;;;;;;-7.13;68.72;96536.78;1831933;77;25714;-82
2022/01/10 03:41:43;;;;;;;62.10;27.00;;;;;;;-7.16;68.68;96547.03;1831568;77;27347;-82
2022/01/10 03:44:09;;;;;;;62.10;27.67;;;;;;;-7.19;68.61;96540.72;1838318;77;25762;-83
2022/01/10 03:46:36;;;;;;;60.30;26.23;;;;;;;-7.21;68.62;96547.03;1841270;76;25750;-82
2022/01/10 03:49:04;;;;;;;67.75;27.73;;;;;;;-7.23;68.54;96558.95;1844209;77;25782;-82
2022/01/10 03:51:32;;;;;;;66.25;27.90;;;;;;;-7.24;68.51;96559.11;1844239;76;25254;-83
2022/01/10 03:53:59;;;;;;;65.32;28.23;;;;;;;-7.26;68.58;96560.54;1844166;76;27388;-82
2022/01/10 03:56:29;;;;;;;65.75;28.40;;;;;;;-7.26;68.47;96563.16;1838752;77;25680;-83
2022/01/10 03:58:56;;;;;;;65.50;27.62;;;;;;;-7.29;68.39;96567.33;1840506;76;25767;-84
2022/01/10 04:01:22;;;;;;;60.95;26.93;;;;;;;-7.29;68.48;96566.02;1834558;76;25645;-83
2022/01/10 04:03:49;;;;;;;62.65;25.52;;;;;;;-7.33;68.41;96571.14;1840723;77;25680;-82
2022/01/10 04:06:16;;;;;;;43.05;20.37;;;;;;;-7.38;68.53;96574.14;1843792;76;27424;-83
2022/01/10 04:08:43;;;;;;;41.77;19.17;;;;;;;-7.36;68.71;96574.00;1844039;76;25770;-83
2022/01/10 04:11:10;;;;;;;50.60;21.17;;;;;;;-7.33;68.85;96580.31;1831490;77;25726;-83
2022/01/10 04:13:36;;;;;;;45.20;19.42;;;;;;;-7.35;68.84;96586.16;1828021;77;25414;-83
2022/01/10 04:16:04;;;;;;;48.48;21.40;;;;;;;-7.37;68.88;96586.78;1835910;77;25715;-82
2022/01/10 04:18:30;;;;;;;52.67;23.25;;;;;;;-7.41;68.79;96591.89;1844298;77;27347;-84
2022/01/10 04:20:57;;;;;;;51.20;23.45;;;;;;;-7.44;68.93;96594.75;1839671;77;25715;-84
2022/01/10 04:23:23;;;;;;;58.80;26.40;;;;;;;-7.43;68.92;96599.88;1836580;77;25665;-83
2022/01/10 04:25:50;;;;;;;54.48;26.00;;;;;;;-7.44;68.88;96606.08;1844058;77;25730;-82
2022/01/10 04:28:17;;;;;;;63.02;27.95;;;;;;;-7.46;68.91;96606.66;1832756;77;25785;-82
2022/01/10 04:30:44;;;;;;;79.35;31.77;;;;;;;-7.45;68.93;96606.19;1829183;76;27350;-82
2022/01/10 04:33:16;;;;;;;67.53;28.05;;;;;;;-7.45;68.96;96609.65;1829135;78;25719;-82
2022/01/10 04:35:39;;;;;;;60.35;27.37;;;;;;;-7.44;68.88;96615.25;1825493;78;25680;-82
2022/01/10 04:38:06;;;;;;;59.88;24.43;;;;;;;-7.47;68.86;96621.20;1831034;77;25830;-82
2022/01/10 04:40:32;;;;;;;56.90;23.35;;;;;;;-7.48;68.87;96615.59;1839212;77;25359;-82
2022/01/10 04:42:59;;;;;;;55.15;22.40;;;;;;;-7.49;68.81;96619.20;1841314;77;27356;-83
2022/01/10 04:45:25;;;;;;;55.65;22.13;;;;;;;-7.49;68.84;96625.75;1841211;77;25785;-83
2022/01/10 04:47:52;;;;;;;49.40;22.98;;;;;;;-7.49;68.72;96623.13;1842712;77;25715;-83
2022/01/10 04:52:50;;;;;;;56.23;25.02;;;;;;;-7.49;68.75;96621.83;1844557;77;25608;-83
2022/01/10 04:55:19;;;;;;;57.95;24.18;;;;;;;-7.51;68.74;96626.34;1844574;77;26826;-83
2022/01/10 04:57:46;;;;;;;62.45;24.25;;;;;;;-7.51;68.65;96631.59;1844441;77;25764;-80
2022/01/10 05:00:15;;;;;;;60.92;24.05;;;;;;;-7.53;68.58;96632.18;1844470;77;25838;-83
2022/01/10 05:02:45;;;;;;;53.92;22.52;;;;;;;-7.56;68.62;96638.96;1844443;77;25651;-83
2022/01/10 05:05:12;;;;;;;54.18;24.30;;;;;;;-7.60;68.61;96638.83;1844573;77;25647;-83
2022/01/10 05:07:39;;;;;;;57.55;24.15;;;;;;;-7.62;68.64;96642.91;1844494;77;27331;-82
2022/01/10 05:10:06;;;;;;;54.27;22.65;;;;;;;-7.65;68.57;96646.59;1844522;77;25800;-82
2022/01/10 05:12:33;;;;;;;48.20;22.27;;;;;;;-7.68;68.63;96643.36;1844594;77;25691;-83
2022/01/10 05:14:59;;;;;;;55.45;23.07;;;;;;;-7.66;68.77;96650.64;1844520;77;26215;-83
2022/01/10 05:17:26;;;;;;;51.83;22.22;;;;;;;-7.65;68.77;96654.45;1844538;77;25707;-83
2022/01/10 05:19:52;;;;;;;52.90;23.92;;;;;;;-7.67;68.77;96658.14;1840989;77;27192;-83
2022/01/10 05:22:19;;;;;;;62.50;27.20;;;;;;;-7.71;68.74;96658.84;1844319;77;25731;-83
2022/01/10 05:24:45;;;;;;;68.78;28.55;;;;;;;-7.73;68.78;96677.77;1844600;77;25674;-83
2022/01/10 05:27:12;;;;;;;64.25;26.55;;;;;;;-7.74;68.73;96676.61;1844479;77;25814;-83
2022/01/10 05:29:39;;;;;;;66.70;26.90;;;;;;;-7.79;68.68;96690.05;1844512;77;25676;-82
2022/01/10 05:32:06;;;;;;;56.05;25.77;;;;;;;-7.81;68.74;96695.03;1844416;77;28256;-82
2022/01/10 05:34:32;;;;;;;60.55;27.35;;;;;;;-7.85;68.75;96704.09;1844293;77;25731;-83
2022/01/10 05:36:59;;;;;;;64.25;27.60;;;;;;;-7.84;68.84;96719.67;1844604;77;25658;-83
2022/01/10 05:39:26;;;;;;;59.65;25.85;;;;;;;-7.85;68.83;96721.96;1844436;77;25613;-83
2022/01/10 05:41:52;;;;;;;65.47;26.85;;;;;;;-7.87;68.78;96726.95;1844609;77;26214;-82
2022/01/10 05:44:19;;;;;;;62.80;25.48;;;;;;;-7.98;68.57;96729.06;1844508;76;27351;-83
2022/01/10 05:46:47;;;;;;;63.87;27.15;;;;;;;-8.10;68.70;96735.22;1844312;77;26286;-80
2022/01/10 05:49:18;;;;;;;74.27;31.60;;;;;;;-8.09;68.89;96742.12;1838814;77;25672;-83
2022/01/10 05:51:44;;;;;;;76.28;32.53;;;;;;;-8.06;69.04;96743.18;1841377;77;25691;-83
2022/01/10 05:54:11;;;;;;;82.33;32.85;;;;;;;-8.05;69.13;96748.78;1841287;77;25746;-83
2022/01/10 05:56:38;;;;;;;81.85;35.68;;;;;;;-8.01;69.21;96752.86;1841127;77;28519;-83
2022/01/10 05:59:04;;;;;;;81.85;37.95;;;;;;;-8.03;69.24;96750.34;1839575;77;25705;-83
2022/01/10 06:01:31;;;;;;;84.65;36.30;;;;;;;-8.04;69.32;96755.70;1839432;77;25656;-83
2022/01/10 06:03:58;;;;;;;79.90;34.08;;;;;;;-8.05;69.37;96761.41;1838215;77;26245;-83
2022/01/10 06:06:24;;;;;;;99.80;46.08;;;;;;;-8.07;69.35;96765.08;1843884;77;25672;-83
2022/01/10 06:08:51;;;;;;;106.00;49.27;;;;;;;-8.13;69.62;96768.16;1841443;77;28042;-82
2022/01/10 06:11:18;;;;;;;121.40;55.08;;;;;;;-8.16;69.79;96768.38;1838031;77;25820;-83
2022/01/10 06:13:44;;;;;;;126.47;57.15;;;;;;;-8.18;69.94;96776.81;1841458;77;25854;-81
2022/01/10 06:16:13;;;;;;;119.75;54.70;;;;;;;-8.21;69.94;96788.84;1841477;76;25795;-82
2022/01/10 06:18:39;;;;;;;127.70;52.30;;;;;;;-8.16;70.02;96795.41;1840374;77;25638;-82
2022/01/10 06:21:06;;;;;;;179.10;67.42;;;;;;;-8.07;70.05;96797.81;1796131;79;27436;-82
2022/01/10 06:23:33;;;;;;;161.70;63.05;;;;;;;-7.99;69.98;96805.97;1801663;79;25712;-83
2022/01/10 06:25:59;;;;;;;129.45;56.48;;;;;;;-7.94;69.95;96807.77;1801335;79;25734;-80
2022/01/10 06:28:26;;;;;;;131.52;54.65;;;;;;;-7.91;69.92;96814.09;1796326;79;25452;-82
2022/01/10 06:30:52;;;;;;;135.70;54.95;;;;;;;-7.89;69.76;96812.67;1796580;79;25751;-83
2022/01/10 06:33:19;;;;;;;131.12;54.35;;;;;;;-7.89;69.63;96820.06;1793085;79;27509;-82
2022/01/10 06:35:45;;;;;;;134.37;56.53;;;;;;;-7.91;69.56;96820.64;1795406;78;25816;-82
2022/01/10 06:38:12;;;;;;;186.55;72.72;;;;;;;-7.92;69.57;96822.90;1781477;80;25756;-82
2022/01/10 06:40:39;;;;;;;203.62;86.47;;;;;;;-7.91;69.51;96840.29;1796050;78;25430;-82
2022/01/10 06:43:05;;;;;;;173.70;74.85;;;;;;;-7.87;69.58;96833.89;1764503;80;26270;-81
2022/01/10 06:45:32;;;;;;;222.45;97.62;;;;;;;-7.85;69.56;96837.71;1788943;79;28828;-81
2022/01/10 06:47:59;;;;;;;159.43;69.17;;;;;;;-7.86;69.55;96835.56;1793128;78;25966;-83
2022/01/10 06:50:25;;;;;;;142.87;62.62;;;;;;;-7.88;69.49;96847.09;1760496;81;25808;-81
2022/01/10 06:52:54;;;;;;;140.95;60.33;;;;;;;-7.91;69.52;96850.77;1794819;79;26609;-83
2022/01/10 06:55:20;;;;;;;142.95;58.33;;;;;;;-7.90;69.59;96848.98;1786235;79;25745;-83
2022/01/10 06:57:47;;;;;;;148.38;63.83;;;;;;;-7.87;69.57;96867.95;1796132;78;26899;-81
2022/01/10 07:00:15;;;;;;;144.60;64.55;;;;;;;-7.85;69.52;96862.13;1800114;79;25666;-82
2022/01/10 07:02:43;;;;;;;166.00;70.57;;;;;;;-7.81;69.53;96867.96;1796383;79;25725;-82
2022/01/10 07:05:10;;;;;;;152.43;71.22;;;;;;;-7.78;69.59;96872.52;1796381;79;25744;-82
2022/01/10 07:07:36;;;;;;;169.20;75.90;;;;;;;-7.74;69.64;96878.38;1796102;79;25703;-82
2022/01/10 07:10:04;;;;;;;202.93;93.45;;;;;;;-7.73;69.53;96878.73;1796428;79;27618;-80
2022/01/10 07:12:31;;;;;;;203.02;93.42;;;;;;;-7.72;69.52;96882.53;1792763;79;25817;-82
2022/01/10 07:14:58;;;;;;;191.20;86.22;;;;;;;-7.68;69.61;96893.16;1787073;78;26253;-82
2022/01/10 07:17:24;;;;;;;195.43;91.08;;;;;;;-7.63;69.71;96892.84;1779700;80;26222;-79
2022/01/10 07:19:51;;;;;;;210.48;96.92;;;;;;;-7.56;69.76;96901.07;1780400;79;25813;-79
2022/01/10 07:22:17;;;;;;;197.02;88.42;;;;;;;-7.60;69.60;96905.69;1770197;80;27615;-82
2022/01/10 07:24:44;;;;;;;190.57;85.50;;;;;;;-7.61;69.67;96910.60;1797872;79;25723;-82
2022/01/10 07:27:11;;;;;;;195.90;83.22;;;;;;;-7.62;69.71;96914.64;1801763;79;26402;-80
2022/01/10 07:29:37;;;;;;;194.95;82.62;;;;;;;-7.65;69.76;96912.60;1801896;79;25742;-81
2022/01/10 07:32:06;;;;;;;195.40;84.60;;;;;;;-7.62;69.86;96915.48;1801751;79;25808;-82
2022/01/10 07:34:32;;;;;;;195.05;83.75;;;;;;;-7.59;69.95;96921.78;1796113;79;27409;-81
2022/01/10 07:36:59;;;;;;;206.78;94.30;;;;;;;-7.53;70.03;96925.76;1801686;79;25830;-81
2022/01/10 07:39:26;;;;;;;193.40;84.80;;;;;;;-7.49;70.04;96935.08;1796168;79;25871;-81
2022/01/10 07:41:52;;;;;;;198.23;88.05;;;;;;;-7.44;70.11;96931.16;1801719;79;25737;-82
2022/01/10 07:44:19;;;;;;;198.53;87.67;;;;;;;-7.39;70.13;96930.83;1801864;79;25692;-81
2022/01/10 07:46:45;;;;;;;195.12;89.75;;;;;;;-7.36;70.14;96939.77;1801727;79;27371;-81
2022/01/10 07:49:12;;;;;;;228.02;104.10;;;;;;;-7.31;70.15;96938.96;1801387;79;25717;-81
2022/01/10 07:51:39;;;;;;;234.12;102.10;;;;;;;-7.25;70.21;96943.77;1798250;79;25901;-83
2022/01/10 07:54:05;;;;;;;246.07;104.17;;;;;;;-7.16;70.29;96944.39;1796392;79;25724;-84
2022/01/10 07:56:32;;;;;;;232.57;99.07;;;;;;;-7.11;70.30;96947.49;1796461;79;25743;-81
2022/01/10 07:58:59;;;;;;;244.65;102.00;;;;;;;-7.05;70.29;96949.67;1790240;79;27402;-82
2022/01/10 08:01:25;;;;;;;248.13;112.68;;;;;;;-6.98;70.26;96953.50;1799107;79;25824;-81
2022/01/10 08:03:53;;;;;;;284.70;126.00;;;;;;;-6.91;70.24;96953.42;1786450;78;25749;-82
2022/01/10 08:06:21;;;;;;;273.07;116.17;;;;;;;-6.82;70.24;96955.82;1801250;79;25946;-83
2022/01/10 08:08:47;;;;;;;238.18;99.65;;;;;;;-6.72;70.22;96965.15;1801367;79;25690;-83
2022/01/10 08:11:14;;;;;;;260.70;108.70;;;;;;;-6.64;70.20;96962.80;1779247;78;27514;-86
2022/01/10 08:13:44;;;;;;;282.65;117.85;;;;;;;-6.57;70.23;96960.05;1783408;79;25781;-81
2022/01/10 08:16:10;;;;;;;285.48;121.72;;;;;;;-6.45;70.28;96968.31;1796103;78;25835;-86
2022/01/10 08:18:37;;;;;;;303.62;127.65;;;;;;;-6.36;70.30;96972.01;1797398;79;25875;-85
2022/01/10 08:21:06;;;;;;;293.65;126.15;;;;;;;-6.26;70.27;96975.12;1796287;79;25763;-84
2022/01/10 08:23:32;;;;;;;284.55;118.65;;;;;;;-6.15;70.26;96973.45;1796328;79;27452;-85
2022/01/10 08:25:59;;;;;;;276.88;115.62;;;;;;;-6.02;70.24;96985.99;1796264;79;25812;-84
2022/01/10 08:28:25;;;;;;;251.95;110.72;;;;;;;-5.89;70.16;96986.70;1796423;79;25696;-84
2022/01/10 08:30:52;;;;;;;246.13;109.90;;;;;;;-5.75;70.15;96985.12;1796408;79;25756;-84
2022/01/10 08:33:19;;;;;;;236.10;102.58;;;;;;;-5.64;70.06;96989.05;1796442;79;25700;-84
2022/01/10 08:35:45;;;;;;;187.68;84.30;;;;;;;-5.55;69.97;97000.14;1796275;79;28052;-83
2022/01/10 08:38:12;;;;;;;190.73;80.62;;;;;;;-5.43;69.95;97001.47;1796167;79;25787;-84
2022/01/10 08:40:38;;;;;;;227.65;94.70;;;;;;;-5.38;69.87;97004.06;1788980;78;25776;-85
2022/01/10 08:43:09;;;;;;;242.77;105.63;;;;;;;-5.23;70.07;97008.11;1796778;79;25816;-82
2022/01/10 08:45:34;;;;;;;225.50;97.62;;;;;;;-5.11;70.00;97012.38;1796769;79;25752;-84
2022/01/10 08:48:00;;;;;;;215.68;95.35;;;;;;;-4.94;69.96;97020.20;1794599;79;28143;-85
2022/01/10 08:50:27;;;;;;;222.80;93.45;;;;;;;-4.80;69.91;97013.33;1788085;78;26056;-83
2022/01/10 08:52:54;;;;;;;226.05;91.55;;;;;;;-4.64;69.80;97019.97;1801623;79;26462;-84
2022/01/10 08:55:20;;;;;;;212.40;91.75;;;;;;;-4.54;69.65;97023.02;1795983;78;26223;-85
2022/01/10 08:57:47;;;;;;;220.88;95.40;;;;;;;-4.43;69.68;97028.23;1796969;79;25671;-84
2022/01/10 09:00:14;;;;;;;211.80;96.57;;;;;;;-4.25;69.80;97028.51;1796492;79;27561;-84
2022/01/10 09:02:41;;;;;;;164.62;75.80;;;;;;;-4.02;69.78;97027.39;1796249;79;25793;-85
2022/01/10 09:05:09;;;;;;;164.93;71.15;;;;;;;-3.76;69.72;97029.61;1796422;79;25694;-85
2022/01/10 09:07:36;;;;;;;179.57;84.67;;;;;;;-3.52;69.41;97019.56;1796274;79;26355;-85
2022/01/10 09:10:05;;;;;;;206.97;94.90;;;;;;;-3.27;69.21;97023.05;1792245;79;25840;-84
2022/01/10 09:12:32;;;;;;;267.05;115.37;;;;;;;-3.19;68.90;97026.80;1794010;79;28119;-83
2022/01/10 09:14:59;;;;;;;369.52;144.93;;;;;;;-3.00;68.90;97023.70;1793495;79;25988;-84
2022/01/10 09:17:26;;;;;;;360.02;147.13;;;;;;;-2.81;68.84;97020.75;1796336;79;25788;-85
2022/01/10 09:19:52;;;;;;;264.82;117.95;;;;;;;-2.59;68.93;97021.31;1796268;79;25726;-84
2022/01/10 09:22:19;;;;;;;255.85;121.05;;;;;;;-2.41;68.76;97021.91;1796462;79;25692;-85
2022/01/10 09:24:46;;;;;;;217.20;105.40;;;;;;;-2.21;68.67;97028.38;1794988;79;27467;-85
2022/01/10 09:27:14;;;;;;;170.65;83.87;;;;;;;-2.00;68.57;97026.88;1795644;79;25740;-84
2022/01/10 09:29:42;;;;;;;119.80;58.13;;;;;;;-1.73;68.29;97034.53;1795770;79;25706;-85
2022/01/10 09:32:10;;;;;;;109.48;51.55;;;;;;;-1.48;68.06;97031.24;1796100;79;25744;-85
2022/01/10 09:34:36;;;;;;;101.72;50.55;;;;;;;-1.36;67.53;97030.08;1795870;79;25675;-85
2022/01/10 09:37:04;;;;;;;98.17;48.52;;;;;;;-1.22;67.31;97040.67;1795897;79;27404;-85
2022/01/10 09:39:31;;;;;;;90.38;47.62;;;;;;;-1.14;67.27;97034.14;1796034;79;25728;-85
2022/01/10 09:41:57;;;;;;;90.65;47.35;;;;;;;-0.96;67.27;97031.51;1796255;79;25798;-85
2022/01/10 09:44:26;;;;;;;101.40;49.10;;;;;;;-0.76;67.04;97032.58;1766597;79;44927;-86
2022/01/10 09:46:53;;;;;;;99.10;49.60;;;;;;;-0.63;66.83;97039.33;1796035;79;25728;-85
2022/01/10 09:49:20;;;;;;;102.78;49.05;;;;;;;-0.41;66.75;97031.75;1796194;79;27462;-85
2022/01/10 09:51:47;;;;;;;107.20;53.20;;;;;;;-0.22;66.38;97038.70;1795976;79;25746;-85
2022/01/10 09:54:14;;;;;;;120.40;59.70;;;;;;;-0.16;66.19;97037.27;1796310;79;25733;-86
2022/01/10 09:56:41;;;;;;;137.05;66.02;;;;;;;0.00;66.38;97041.38;1796346;79;25614;-86
2022/01/10 09:59:08;;;;;;;125.97;57.88;;;;;;;0.20;66.26;97040.68;1796347;79;26360;-87
2022/01/10 10:01:35;;;;;;;112.85;52.67;;;;;;;0.46;66.11;97049.48;1796029;79;28242;-87
2022/01/10 10:04:02;;;;;;;93.62;47.93;;;;;;;0.67;65.50;97047.76;1796314;79;25992;-87
2022/01/10 10:06:33;;;;;;;89.28;43.83;;;;;;;0.86;65.42;97050.16;1796297;79;25810;-87
2022/01/10 10:09:04;;;;;;;87.82;46.28;;;;;;;1.08;65.01;97045.63;1796107;79;25428;-87
2022/01/10 10:11:50;;;;;;;85.47;43.98;;;;;;;1.10;64.69;97048.09;1796128;79;25814;-87
2022/01/10 10:14:21;;;;;;;95.85;48.58;;;;;;;1.41;64.81;97049.69;1796405;79;28157;-88
2022/01/10 10:16:51;;;;;;;86.50;46.53;;;;;;;1.79;64.50;97044.27;1796201;79;25277;-87
2022/01/10 10:19:24;;;;;;;83.07;41.45;;;;;;;1.98;63.71;97053.73;1796365;79;25755;-87
2022/01/10 10:21:52;;;;;;;83.03;42.88;;;;;;;2.09;63.41;97044.08;1796346;79;25399;-87
2022/01/10 10:24:20;;;;;;;79.53;42.38;;;;;;;2.24;63.32;97051.73;1796410;79;25776;-88
2022/01/10 10:26:48;;;;;;;85.92;44.13;;;;;;;2.30;62.80;97047.55;1796281;79;27364;-87
2022/01/10 10:29:18;;;;;;;93.33;45.52;;;;;;;2.39;62.74;97049.23;1796263;79;25724;-87
2022/01/10 10:31:51;;;;;;;87.35;45.98;;;;;;;2.50;62.58;97047.05;1796303;79;25707;-88
2022/01/10 10:34:23;;;;;;;109.20;55.17;;;;;;;2.76;62.47;97053.98;1796262;79;25798;-90
2022/01/10 10:37:11;;;;;;;95.22;49.93;;;;;;;2.95;61.68;97061.56;1795610;79;25707;-90
2022/01/10 10:39:41;;;;;;;84.35;44.90;;;;;;;3.21;61.62;97063.47;1796345;79;27560;-88
2022/01/10 10:42:12;;;;;;;67.75;36.38;;;;;;;3.49;61.44;97071.84;1796190;79;25738;-89
2022/01/10 10:44:46;;;;;;;58.95;34.95;;;;;;;3.69;60.99;97073.55;1795807;79;25767;-88
2022/01/10 10:47:12;;;;;;;72.22;40.43;;;;;;;3.89;60.77;97074.73;1814364;79;26156;-89
2022/01/10 10:49:44;;;;;;;66.87;37.95;;;;;;;4.11;60.03;97080.25;1794182;78;25774;-89
2022/01/10 10:52:10;;;;;;;71.17;40.78;;;;;;;4.28;59.70;97089.81;1826685;77;27522;-88
2022/01/10 10:54:38;;;;;;;71.37;40.20;;;;;;;4.39;59.03;97093.39;1827473;77;25784;-89
2022/01/10 10:57:08;;;;;;;66.30;37.08;;;;;;;4.43;59.09;97092.53;1827486;77;25696;-88
2022/01/10 10:59:39;;;;;;;65.70;39.63;;;;;;;4.55;58.73;97093.25;1827697;77;25711;-88
2022/01/10 11:02:04;;;;;;;132.25;74.55;;;;;;;4.59;58.14;97098.55;1796537;78;25715;-87
2022/01/10 11:04:31;;;;;;;96.75;50.10;;;;;;;4.63;58.35;97099.02;1765466;80;27486;-88
2022/01/10 11:06:59;;;;;;;97.95;47.93;;;;;;;4.78;58.06;97097.20;1827336;78;25968;-89
2022/01/10 11:09:26;;;;;;;89.70;45.05;;;;;;;4.84;57.69;97100.47;1826422;76;25802;-90
2022/01/10 11:11:52;;;;;;;62.05;34.85;;;;;;;4.88;57.42;97108.97;1836232;77;26101;-88
2022/01/10 11:14:22;;;;;;;85.70;41.15;;;;;;;4.93;57.16;97111.94;1853561;76;25673;-87
2022/01/10 11:16:52;;;;;;;56.37;30.70;;;;;;;5.01;56.93;97111.34;1849454;77;27535;-87
2022/01/10 11:19:23;;;;;;;45.55;24.63;;;;;;;5.20;56.61;97112.63;1853489;76;25669;-87
2022/01/10 11:22:09;;;;;;;50.58;24.57;;;;;;;5.27;56.59;97114.90;1853388;77;25619;-87
2022/01/10 11:24:54;;;;;;;31.80;18.67;;;;;;;5.30;56.48;97119.89;1843393;76;25790;-88